Flight Track Log - Related Links

Times and Time Zones

All times are in EDT time to prevent confusion due to time zone crossing. See the N121JM flight status page for this flight to view local times or setup timezone preferences in your user account.

Time Position Orientation Groundspeed Altitude Reporting Facility
EDT Latitude Longitude Course Direction KTS MPH feet Rate Location/Type
Sat 02:55:04 PM 39.4400 -74.5299 114° Southeast 205 236 2,100  Level FlightAware ADS-B (KWWD)
Sat 02:55:24 PM 39.4345 -74.5059 100° East 213 245 3,200 3,150 Climbing FlightAware ADS-B (KWWD)
Sat 02:55:44 PM 39.4332 -74.4786 85° East 228 262 4,200 3,000 Climbing FlightAware ADS-B (KWWD)
Sat 02:56:00 PM 39.4365 -74.4564 74° East 237 273 5,000 3,077 Climbing FlightAware ADS-B (KWWD)
Sat 02:56:23 PM 39.4449 -74.4265 70° East 234 269 6,200 3,136 Climbing FlightAware ADS-B (KWWD)
Sat 02:56:44 PM 39.4542 -74.3989 67° East 245 282 7,300 3,366 Climbing FlightAware ADS-B (KWWD)
Sat 02:57:04 PM 39.4646 -74.3715 63° Northeast 252 290 8,500 3,450 Climbing FlightAware ADS-B (KWWD)
Sat 02:57:24 PM 39.4762 -74.3437 63° Northeast 257 296 9,600 2,520 Climbing FlightAware ADS-B (KWWD)
Sat 02:57:54 PM 39.4944 -74.3011 62° Northeast 285 328 10,600 1,326 Climbing FlightAware ADS-B (KWWD)
Sat 02:58:59 PM 39.5406 -74.1906 62° Northeast 348 400 11,700 2,147 Climbing FlightAware ADS-B (KWWD)
Sat 02:59:29 PM 39.5624 -74.1331 65° Northeast 355 409 14,000 3,387 Climbing FlightAware ADS-B (KWWD)
Sat 03:00:01 PM 39.5853 -74.0676 66° East 371 427 15,200 1,865 Climbing FlightAware ADS-B (KWWD)
Sat 03:00:43 PM 39.6168 -73.9831 59° Northeast 385 443 16,300 1,671 Climbing FlightAware ADS-B (KWWD)
Sat 03:01:20 PM 39.6584 -73.9156 47° Northeast 386 444 17,400 1,941 Climbing FlightAware ADS-B (KPHL)
Sat 03:01:51 PM 39.6967 -73.8636 45° Northeast 385 443 18,500 2,032 Climbing FlightAware ADS-B (KPHL)
Sat 03:02:22 PM 39.7283 -73.8282 38° Northeast 381 438 19,500 1,594 Climbing FlightAware ADS-B (KPHL)
Sat 03:02:55 PM 39.7850 -73.7738 36° Northeast 380 437 20,200 986 Climbing FlightAware ADS-B (KWWD)
Sat 03:03:35 PM 39.8427 -73.7200 37° Northeast 381 438 20,700 686 Climbing FlightAware ADS-B (KWWD)
Sat 03:04:05 PM 39.8860 -73.6784 37° Northeast 382 440 21,000 295 Climbing FlightAware ADS-B (KWWD)
Sat 03:04:36 PM 39.9308 -73.6339 38° Northeast 393 452 21,000  Level FlightAware ADS-B (KPHL)
Sat 03:05:21 PM 39.9621 -73.6024 38° Northeast 391 450 21,000  Level FlightAware ADS-B (KPHL)
Sat 03:05:51 PM 40.0388 -73.5260 37° Northeast 384 442 21,000  Level FlightAware ADS-B (KWWD)
Sat 03:06:10 PM 40.0647 -73.5013 36° Northeast 391 450 21,000 48 Level FlightAware ADS-B (KSNC)
Sat 03:07:56 PM 40.2073 -73.3654 37° Northeast 397 457 21,100  Climbing FlightAware ADS-B (KSNC)
Sat 03:08:55 PM 40.2486 -73.3246 37° Northeast 398 458 21,000 -62 Descending FlightAware ADS-B (KSNC)
Sat 03:09:33 PM 40.3654 -73.2097 37° Northeast 405 466 21,000  Level FlightAware ADS-B (KSNC)
Sat 03:10:15 PM 40.4199 -73.1548 38° Northeast 408 470 21,000 82 Level FlightAware ADS-B (KSNC)
Sat 03:10:46 PM 40.4664 -73.1078 38° Northeast 408 470 21,100  Climbing FlightAware ADS-B (KSNC)
Sat 03:11:25 PM 40.5126 -73.0610 37° Northeast 407 468 21,000 -86 Descending FlightAware ADS-B (KSNC)
Sat 03:11:56 PM 40.5777 -72.9974 37° Northeast 404 465 21,000  Level FlightAware ADS-B (KSNC)
Sat 03:12:35 PM 40.6335 -72.9422 37° Northeast 403 464 21,000  Level FlightAware ADS-B (KSNC)
Sat 03:13:15 PM 40.6968 -72.8784 38° Northeast 399 459 21,000  Level FlightAware ADS-B (KSNC)
Sat 03:13:46 PM 40.7427 -72.8315 38° Northeast 401 461 21,000  Level FlightAware ADS-B (KSNC)
Sat 03:14:17 PM 40.7869 -72.7864 37° Northeast 400 460 21,000 -171 Level FlightAware ADS-B (KSNC)
Sat 03:14:56 PM 40.8448 -72.7294 37° Northeast 390 449 20,800 -592 Descending FlightAware ADS-B (KSNC)
Sat 03:15:28 PM 40.8906 -72.6846 36° Northeast 382 440 20,300 -1,301 Descending FlightAware ADS-B (KSNC)
Sat 03:16:19 PM 40.9595 -72.6165 38° Northeast 385 443 19,000 -1,435 Descending FlightAware ADS-B (KSNC)
Sat 03:17:00 PM 41.0154 -72.5557 39° Northeast 379 436 18,100 -1,268 Descending FlightAware ADS-B (KSNC)
Sat 03:17:30 PM 41.0606 -72.5087 38° Northeast 374 430 17,500 -885 Descending FlightAware ADS-B (KSNC)
Sat 03:18:01 PM 41.0930 -72.4753 37° Northeast 369 425 17,200 -462 Descending FlightAware ADS-B (KSNC)
Sat 03:18:48 PM 41.1528 -72.4152 38° Northeast 373 429 16,900 -300 Descending FlightAware ADS-B (KSNC)
Sat 03:19:21 PM 41.2111 -72.3551 37° Northeast 373 429 16,800 -95 Descending FlightAware ADS-B (KSNC)
Sat 03:19:51 PM 41.2544 -72.3201 26° Northeast 373 429 16,800  Level FlightAware ADS-B (KSNC)
Sat 03:20:21 PM 41.3035 -72.2963 14° North 376 433 16,800  Level FlightAware ADS-B (KSNC)
Sat 03:20:51 PM 41.3466 -72.2847 10° North 376 433 16,800  Level FlightAware ADS-B (KSNC)
Sat 03:21:22 PM 41.4086 -72.2684 13° North 378 435 16,800  Level FlightAware ADS-B (KSNC)
Sat 03:22:01 PM 41.4747 -72.2458 15° North 379 436 16,800  Level FlightAware ADS-B (KSNC)
Sat 03:22:32 PM 41.5262 -72.2279 15° North 377 434 16,800 -295 Level FlightAware ADS-B (KSNC)
Sat 03:23:02 PM 41.5776 -72.2088 16° North 377 434 16,500 -700 Descending FlightAware ADS-B (KSNC)
Sat 03:23:32 PM 41.6236 -72.1919 15° North 374 430 16,100 -1,180 Descending FlightAware ADS-B (KSNC)
Sat 03:24:03 PM 41.6665 -72.1769 15° North 369 425 15,300 -1,800 Descending FlightAware ADS-B (KSNC)
Sat 03:24:52 PM 41.7543 -72.1450 14° North 364 419 13,700 -2,175 Descending FlightAware ADS-B (KSNC)
Sat 03:25:23 PM 41.8100 -72.1272 12° North 356 410 12,400 -891 Descending FlightAware ADS-B (KSNC)
Sat 03:29:28 PM 42.1326 -72.0001 45° Northeast 255 293 9,600 -1,115 Descending FlightAware ADS-B (SBBR / BSB)
Sat 03:31:02 PM 42.2180 -71.9034 37° Northeast 245 282 6,100 -1,782 Descending FlightAware ADS-B (SBBR / BSB)
Sat 03:32:13 PM 42.2435 -71.8782 41° Northeast 232 267 4,700 -556 Descending FlightAware ADS-B (SBBR / BSB)
Sat 03:33:33 PM 42.3434 -71.7730 30° Northeast 195 224 4,700 -83 Level FlightAware ADS-B (SBBR / BSB)
Sat 03:34:37 PM 42.3938 -71.7315 45° Northeast 204 235 4,500 -375 Descending FlightAware ADS-B (SBBR / BSB)
Sat 03:35:09 PM 42.3815 -71.7433 56° Northeast 208 239 4,100 -787 Descending FlightAware ADS-B
Sat 03:35:38 PM 42.4291 -71.6684 60° Northeast 204 235 3,700 -875 Descending FlightAware ADS-B (KASH)
Sat 03:35:57 PM 42.4384 -71.6483 60° Northeast 203 234 3,400 -973 Descending FlightAware ADS-B (KASH)
Sat 03:36:15 PM 42.4477 -71.6284 57° Northeast 204 235 3,100 -800 Descending FlightAware ADS-B (SBBR / BSB)
Sat 03:36:42 PM 42.4613 -71.6005 56° Northeast 200 230 2,800 -333 Descending FlightAware ADS-B (KASH)
Sat 03:37:09 PM 42.4745 -71.5696 67° East 203 234 2,800 -250 Level FlightAware ADS-B
Sat 03:37:30 PM 42.4797 -71.5456 76° East 194 223 2,600 -500 Descending FlightAware ADS-B (KASH)
Sat 03:37:45 PM 42.4825 -71.5279 79° East 180 207 2,500 -400 Descending FlightAware ADS-B (KASH)
Sat 03:38:00 PM 42.4844 -71.5124 83° East 162 186 2,400 -621 Descending FlightAware ADS-B (KASH)
Sat 03:38:14 PM 42.4855 -71.4984 88° East 163 188 2,200 -621 Descending FlightAware ADS-B (KASH)
Sat 03:38:29 PM 42.4858 -71.4838 91° East 159 183 2,100 -400 Descending FlightAware ADS-B (KASH)
Sat 03:38:44 PM 42.4857 -71.4688 91° East 156 180 2,000 -600 Descending FlightAware ADS-B (KASH)
Sat 03:38:59 PM 42.4854 -71.4539 91° East 168 193 1,800 -429 Descending FlightAware ADS-B (KASH)
Sat 03:39:40 PM 42.4822 -71.4119 91° East 162 186 1,600 -471 Descending Boston Center
Sat 03:40:41 PM 42.4775 -71.3533 96° East 162 186 1,000 -585 Descending Boston Center
Sat 03:41:43 PM 42.4717 -71.2981 98° East 161 185 400 -581 Descending Boston Center
Sat 03:43:00 PM 42.4667 -71.2833 66° East  Level FlightAware Approximate

Login

Don't have an account? Register now (free) for customized features, flight alerts, and more!